createdAt,value
2023-04-29T00:02:01.693Z,10.20
2023-04-29T00:04:33.053Z,10.20
2023-04-29T00:07:01.277Z,10.10
2023-04-29T00:09:29.240Z,10.10
2023-04-29T00:11:57.182Z,10.10
2023-04-29T00:14:25.996Z,10.00
2023-04-29T00:16:57.733Z,10.00
2023-04-29T00:19:25.834Z,10.00
2023-04-29T00:21:55.083Z,9.90
2023-04-29T00:24:23.246Z,9.90
2023-04-29T00:26:52.100Z,9.90
2023-04-29T00:29:20.071Z,9.80
2023-04-29T00:31:48.091Z,9.80
2023-04-29T00:34:18.778Z,9.80
2023-04-29T00:36:47.007Z,9.80
2023-04-29T00:39:15.510Z,9.70
2023-04-29T00:41:43.615Z,9.70
2023-04-29T00:44:11.955Z,9.60
2023-04-29T00:46:40.340Z,9.60
2023-04-29T00:49:09.070Z,9.60
2023-04-29T00:51:37.844Z,9.60
2023-04-29T00:54:09.165Z,9.60
2023-04-29T00:56:38.151Z,9.50
2023-04-29T00:59:09.805Z,9.50
2023-04-29T01:01:38.038Z,9.40
2023-04-29T01:04:09.446Z,9.40
2023-04-29T01:06:40.630Z,9.40
2023-04-29T01:09:08.879Z,9.40
2023-04-29T01:11:43.204Z,9.30
2023-04-29T01:14:12.068Z,9.30
2023-04-29T01:16:52.380Z,9.20
2023-04-29T01:19:33.057Z,9.10
2023-04-29T01:22:01.173Z,9.10
2023-04-29T01:24:29.514Z,9.20
2023-04-29T01:27:02.785Z,9.10
2023-04-29T01:30:01.918Z,9.10
2023-04-29T01:32:34.822Z,9.10
2023-04-29T01:35:09.211Z,9.10
2023-04-29T01:37:56.088Z,9.10
2023-04-29T01:40:34.914Z,9.00
2023-04-29T01:43:12.443Z,8.90
2023-04-29T01:45:45.384Z,8.90
2023-04-29T01:48:14.629Z,8.90
2023-04-29T01:50:45.568Z,8.90
2023-04-29T01:53:17.452Z,8.80
2023-04-29T01:55:46.952Z,8.80
2023-04-29T01:58:24.164Z,8.80
2023-04-29T02:01:03.756Z,8.70
2023-04-29T02:03:34.377Z,8.70
2023-04-29T02:06:04.792Z,8.70
2023-04-29T02:08:33.417Z,8.60
2023-04-29T02:11:02.641Z,8.60
2023-04-29T02:13:41.402Z,8.60
2023-04-29T02:16:10.551Z,8.50
2023-04-29T02:18:42.546Z,8.50
2023-04-29T02:21:11.142Z,8.50
2023-04-29T02:23:39.133Z,8.50
2023-04-29T02:26:10.982Z,8.40
2023-04-29T02:28:39.227Z,8.40
2023-04-29T02:31:07.307Z,8.40
2023-04-29T02:33:35.609Z,8.50
2023-04-29T02:36:04.032Z,8.50
2023-04-29T02:38:34.434Z,8.40
2023-04-29T02:41:02.987Z,8.40
2023-04-29T02:43:31.908Z,8.40
2023-04-29T02:46:01.193Z,8.40
2023-04-29T02:48:29.618Z,8.40
2023-04-29T02:50:57.659Z,8.30
2023-04-29T02:53:25.724Z,8.30
2023-04-29T02:55:56.186Z,8.30
2023-04-29T02:58:25.283Z,8.40
2023-04-29T03:00:55.793Z,8.30
2023-04-29T03:03:24.140Z,8.30
2023-04-29T03:05:52.670Z,8.30
2023-04-29T03:08:20.790Z,8.20
2023-04-29T03:10:51.257Z,8.20
2023-04-29T03:13:20.905Z,8.20
2023-04-29T03:15:50.689Z,8.20
2023-04-29T03:18:19.180Z,8.20
2023-04-29T03:20:47.132Z,8.20
2023-04-29T03:23:16.463Z,8.10
2023-04-29T03:25:44.814Z,8.20
2023-04-29T03:28:13.533Z,8.20
2023-04-29T03:30:41.624Z,8.20
2023-04-29T03:33:09.789Z,8.10
2023-04-29T03:35:40.551Z,8.10
2023-04-29T03:38:36.077Z,8.10
2023-04-29T03:41:10.553Z,8.10
2023-04-29T03:43:41.445Z,8.20
2023-04-29T03:46:09.579Z,8.20
2023-04-29T03:48:38.255Z,8.30
2023-04-29T03:51:06.728Z,8.30
2023-04-29T03:53:35.127Z,8.40
2023-04-29T03:56:05.378Z,8.50
2023-04-29T03:58:33.448Z,8.60
2023-04-29T04:01:04.509Z,8.60
2023-04-29T04:03:41.386Z,8.70
2023-04-29T04:06:10.679Z,8.80
2023-04-29T04:08:41.460Z,8.90
2023-04-29T04:11:15.684Z,9.00
2023-04-29T04:13:47.811Z,9.10
2023-04-29T04:16:16.738Z,9.10
2023-04-29T04:18:44.820Z,9.20
2023-04-29T04:21:15.456Z,9.30
2023-04-29T04:23:48.527Z,9.30
2023-04-29T04:26:24.113Z,9.40
2023-04-29T04:28:57.812Z,9.50
2023-04-29T04:31:38.748Z,9.60
2023-04-29T04:34:07.174Z,9.70
2023-04-29T04:36:36.119Z,9.80
2023-04-29T04:39:04.218Z,9.90
2023-04-29T04:41:34.563Z,9.90
2023-04-29T04:44:05.176Z,10.00
2023-04-29T04:46:51.467Z,10.00
2023-04-29T04:49:38.258Z,10.10
2023-04-29T04:52:08.855Z,10.20
2023-04-29T04:54:37.044Z,10.40
2023-04-29T04:57:13.538Z,10.50
2023-04-29T04:59:41.718Z,10.70
2023-04-29T05:02:09.796Z,10.90
2023-04-29T05:04:40.918Z,11.00
2023-04-29T05:07:09.616Z,11.20
2023-04-29T05:09:57.516Z,11.40
2023-04-29T05:12:31.216Z,11.60
2023-04-29T05:15:00.780Z,11.70
2023-04-29T05:17:30.384Z,11.80
2023-04-29T05:20:01.188Z,11.90
2023-04-29T05:22:30.293Z,12.00
2023-04-29T05:25:03.355Z,12.30
2023-04-29T05:27:34.046Z,12.60
2023-04-29T05:30:03.167Z,13.20
2023-04-29T05:32:31.572Z,13.60
2023-04-29T05:34:59.801Z,14.00
2023-04-29T05:37:31.351Z,14.40
2023-04-29T05:40:10.726Z,14.80
2023-04-29T05:42:38.781Z,15.00
2023-04-29T05:45:07.771Z,15.10
2023-04-29T05:47:35.816Z,15.10
2023-04-29T05:50:06.303Z,15.10
2023-04-29T05:52:34.597Z,14.90
2023-04-29T05:55:02.609Z,14.90
2023-04-29T05:57:31.079Z,14.90
2023-04-29T06:00:00.410Z,15.00
2023-04-29T06:02:28.845Z,14.80
2023-04-29T06:04:57.443Z,14.80
2023-04-29T06:07:41.898Z,15.10
2023-04-29T06:10:21.872Z,15.50
2023-04-29T06:12:52.214Z,15.80
2023-04-29T06:15:20.794Z,16.00
2023-04-29T06:17:49.286Z,16.30
2023-04-29T06:20:18.587Z,17.00
2023-04-29T06:22:46.734Z,17.80
2023-04-29T06:25:14.809Z,18.40
2023-04-29T06:27:49.101Z,18.70
2023-04-29T06:30:18.845Z,18.90
2023-04-29T06:32:49.070Z,19.20
2023-04-29T06:35:18.423Z,19.60
2023-04-29T06:38:05.005Z,20.00
2023-04-29T06:40:39.135Z,20.30
2023-04-29T06:43:27.698Z,20.50
2023-04-29T06:46:14.193Z,21.10
2023-04-29T06:48:53.956Z,21.60
2023-04-29T06:51:22.079Z,21.90
2023-04-29T06:53:50.352Z,22.20
2023-04-29T06:56:21.541Z,22.10
2023-04-29T06:58:49.635Z,21.60
2023-04-29T07:01:17.803Z,21.20
2023-04-29T07:03:46.196Z,21.10
2023-04-29T07:06:14.390Z,21.10
2023-04-29T07:08:42.499Z,21.10
2023-04-29T07:11:10.512Z,21.30
2023-04-29T07:13:38.649Z,21.70
2023-04-29T07:16:14.965Z,22.30
2023-04-29T07:18:43.113Z,23.10
2023-04-29T07:21:11.265Z,23.60
2023-04-29T07:23:39.486Z,24.20
2023-04-29T07:26:11.540Z,24.90
2023-04-29T07:28:40.121Z,25.30
2023-04-29T07:31:10.498Z,25.90
2023-04-29T07:33:38.636Z,26.20
2023-04-29T07:36:07.867Z,26.30
2023-04-29T07:38:37.389Z,26.80
2023-04-29T07:41:05.868Z,27.30
2023-04-29T07:43:34.160Z,27.60
2023-04-29T07:46:02.367Z,28.10
2023-04-29T07:48:30.645Z,28.40
2023-04-29T07:50:58.864Z,28.60
2023-04-29T07:53:26.933Z,28.80
2023-04-29T07:55:55.127Z,29.20
2023-04-29T07:58:24.076Z,29.40
2023-04-29T08:00:52.266Z,29.30
2023-04-29T08:03:20.967Z,29.60
2023-04-29T08:05:49.222Z,30.10
2023-04-29T08:08:18.855Z,30.40
2023-04-29T08:10:47.145Z,30.40
2023-04-29T08:13:15.374Z,30.20
2023-04-29T08:15:43.547Z,29.70
2023-04-29T08:18:11.691Z,29.30
2023-04-29T08:20:39.781Z,29.50
2023-04-29T08:23:08.353Z,30.10
2023-04-29T08:25:36.365Z,30.70
2023-04-29T08:28:04.697Z,30.90
2023-04-29T08:30:33.360Z,31.30
2023-04-29T08:33:01.650Z,31.50
2023-04-29T08:35:29.818Z,31.90
2023-04-29T08:37:57.822Z,31.80
2023-04-29T08:40:26.871Z,32.30
2023-04-29T08:42:55.030Z,33.00
2023-04-29T08:45:24.059Z,33.50
2023-04-29T08:47:53.210Z,34.20
2023-04-29T08:50:21.564Z,34.60
2023-04-29T08:52:50.525Z,34.90
2023-04-29T08:55:19.220Z,35.00
2023-04-29T08:57:50.954Z,35.10
2023-04-29T09:00:20.331Z,35.40
2023-04-29T09:02:50.612Z,35.50
2023-04-29T09:05:18.811Z,35.80
2023-04-29T09:07:47.340Z,35.90
2023-04-29T09:10:16.713Z,36.10
2023-04-29T09:12:44.989Z,36.30
2023-04-29T09:15:35.617Z,36.40
2023-04-29T09:21:37.575Z,36.60
2023-04-29T09:24:05.631Z,36.90
2023-04-29T09:26:43.762Z,37.30
2023-04-29T09:29:14.503Z,37.50
2023-04-29T09:31:43.835Z,37.70
2023-04-29T09:34:12.345Z,38.00
2023-04-29T09:36:40.403Z,38.30
2023-04-29T09:39:12.875Z,38.50
2023-04-29T09:41:44.126Z,38.50
2023-04-29T09:44:12.385Z,38.60
2023-04-29T09:46:40.573Z,38.50
2023-04-29T09:49:27.994Z,38.40
2023-04-29T09:51:56.946Z,38.50
2023-04-29T09:54:25.817Z,38.60
2023-04-29T09:56:53.916Z,38.50
2023-04-29T09:59:22.312Z,38.60
2023-04-29T10:01:51.785Z,38.50
2023-04-29T10:04:21.093Z,38.50
2023-04-29T10:06:50.555Z,38.40
2023-04-29T10:09:19.506Z,38.70
2023-04-29T10:11:51.642Z,38.90
2023-04-29T10:14:20.810Z,38.90
2023-04-29T10:16:49.651Z,39.10
2023-04-29T10:19:32.273Z,39.10
2023-04-29T10:22:01.595Z,38.40
2023-04-29T10:24:29.776Z,38.30
2023-04-29T10:26:59.208Z,38.70
2023-04-29T10:29:28.998Z,39.30
2023-04-29T10:31:57.776Z,39.70
2023-04-29T10:34:26.855Z,39.60
2023-04-29T10:36:54.944Z,39.80
2023-04-29T10:39:36.572Z,40.10
2023-04-29T10:42:06.512Z,40.60
2023-04-29T10:44:54.669Z,40.70
2023-04-29T10:47:22.900Z,40.60
2023-04-29T10:50:04.893Z,40.70
2023-04-29T10:52:51.521Z,40.70
2023-04-29T10:55:19.613Z,41.10
2023-04-29T10:57:47.830Z,41.40
2023-04-29T11:00:23.774Z,40.30
2023-04-29T11:03:06.284Z,39.40
2023-04-29T11:05:35.336Z,38.50
2023-04-29T11:08:13.950Z,37.50
2023-04-29T11:10:42.413Z,37.60
2023-04-29T11:13:23.118Z,37.20
2023-04-29T11:15:54.304Z,36.90
2023-04-29T11:18:23.804Z,36.60
2023-04-29T11:21:07.129Z,35.70
2023-04-29T11:23:36.114Z,35.20
2023-04-29T11:26:04.431Z,34.80
2023-04-29T11:28:32.784Z,35.80
2023-04-29T11:31:01.071Z,36.00
2023-04-29T11:33:32.071Z,35.50
2023-04-29T11:36:00.886Z,35.70
2023-04-29T11:38:29.239Z,35.40
2023-04-29T11:40:57.863Z,35.40
2023-04-29T11:43:26.350Z,35.90
2023-04-29T11:45:54.625Z,36.00
2023-04-29T11:48:23.424Z,35.30
2023-04-29T11:50:52.696Z,35.10
2023-04-29T11:53:21.359Z,35.30
2023-04-29T11:55:49.335Z,35.00
2023-04-29T11:58:18.469Z,34.50
2023-04-29T12:00:47.919Z,35.30
2023-04-29T12:03:17.306Z,35.40
2023-04-29T12:05:49.012Z,34.90
2023-04-29T12:08:20.326Z,34.30
2023-04-29T12:10:51.762Z,34.10
2023-04-29T12:13:20.242Z,34.60
2023-04-29T12:15:49.405Z,35.00
2023-04-29T12:18:22.312Z,34.70
2023-04-29T12:20:53.845Z,35.00
2023-04-29T12:23:23.537Z,34.80
2023-04-29T12:25:58.357Z,34.70
2023-04-29T12:28:27.017Z,34.20
2023-04-29T12:30:58.408Z,30.80
2023-04-29T12:33:27.595Z,25.70
2023-04-29T12:35:59.029Z,24.70
2023-04-29T12:38:30.901Z,25.60
2023-04-29T12:41:00.014Z,26.10
2023-04-29T12:43:31.814Z,24.80
2023-04-29T12:46:03.737Z,24.80
2023-04-29T12:48:35.458Z,25.50
2023-04-29T12:51:03.751Z,26.60
2023-04-29T12:53:32.328Z,27.90
2023-04-29T12:56:00.624Z,28.80
2023-04-29T12:58:31.953Z,28.70
2023-04-29T13:01:00.587Z,28.70
2023-04-29T13:03:28.856Z,28.90
2023-04-29T13:05:57.666Z,29.20
2023-04-29T13:08:25.813Z,29.50
2023-04-29T13:10:54.263Z,29.60
2023-04-29T13:13:22.450Z,29.80
2023-04-29T13:15:50.428Z,29.00
2023-04-29T13:18:20.927Z,29.00
2023-04-29T13:20:48.981Z,29.10
2023-04-29T13:23:17.128Z,29.40
2023-04-29T13:25:45.164Z,28.70
2023-04-29T13:28:15.597Z,27.90
2023-04-29T13:30:43.800Z,26.80
2023-04-29T13:33:13.731Z,26.00
2023-04-29T13:35:42.253Z,25.60
2023-04-29T13:38:10.462Z,25.30
2023-04-29T13:40:42.331Z,25.70
2023-04-29T13:43:20.951Z,25.70
2023-04-29T13:45:57.446Z,25.60
2023-04-29T13:48:58.803Z,25.10
2023-04-29T13:51:55.958Z,24.70
2023-04-29T13:54:38.256Z,24.40
2023-04-29T13:57:26.345Z,24.00
2023-04-29T13:59:56.378Z,23.60
2023-04-29T14:02:25.906Z,23.30
2023-04-29T14:04:55.313Z,23.40
2023-04-29T14:07:23.738Z,23.30
2023-04-29T14:09:52.347Z,23.00
2023-04-29T14:12:22.770Z,22.80
2023-04-29T14:14:52.221Z,22.70
2023-04-29T14:17:20.285Z,22.50
2023-04-29T14:19:48.379Z,22.40
2023-04-29T14:22:16.567Z,22.40
2023-04-29T14:24:44.562Z,22.30
2023-04-29T14:27:12.775Z,22.30
2023-04-29T14:29:40.697Z,22.20
2023-04-29T14:32:08.966Z,22.00
2023-04-29T14:34:37.020Z,21.80
2023-04-29T14:37:05.253Z,21.70
2023-04-29T14:39:33.293Z,21.50
2023-04-29T14:42:04.186Z,21.10
2023-04-29T14:44:32.501Z,21.20
2023-04-29T14:47:01.188Z,21.50
2023-04-29T14:49:31.566Z,21.90
2023-04-29T14:52:00.248Z,22.40
2023-04-29T14:54:28.347Z,22.70
2023-04-29T14:56:56.369Z,22.80
2023-04-29T14:59:30.525Z,22.90
2023-04-29T15:02:01.225Z,22.90
2023-04-29T15:04:29.562Z,23.00
2023-04-29T15:06:58.309Z,23.10
2023-04-29T15:09:27.266Z,23.10
2023-04-29T15:11:55.171Z,23.10
2023-04-29T15:14:23.229Z,22.90
2023-04-29T15:16:51.547Z,22.70
2023-04-29T15:19:19.754Z,22.50
2023-04-29T15:21:47.879Z,22.20
2023-04-29T15:24:15.804Z,22.10
2023-04-29T15:26:43.836Z,21.90
2023-04-29T15:29:12.297Z,21.80
2023-04-29T15:31:40.371Z,21.70
2023-04-29T15:34:08.365Z,21.70
2023-04-29T15:36:36.335Z,21.70
2023-04-29T15:39:04.368Z,21.60
2023-04-29T15:41:32.344Z,21.50
2023-04-29T15:44:00.263Z,21.40
2023-04-29T15:46:30.289Z,21.40
2023-04-29T15:48:58.376Z,21.20
2023-04-29T15:51:26.462Z,21.20
2023-04-29T15:53:54.444Z,21.00
2023-04-29T15:56:22.526Z,20.80
2023-04-29T15:58:50.593Z,20.70
2023-04-29T16:01:18.637Z,20.50
2023-04-29T16:03:46.800Z,20.40
2023-04-29T16:06:16.566Z,20.30
2023-04-29T16:08:44.864Z,20.20
2023-04-29T16:11:12.754Z,20.10
2023-04-29T16:13:40.838Z,20.00
2023-04-29T16:16:08.893Z,19.90
2023-04-29T16:18:36.909Z,19.80
2023-04-29T16:21:04.983Z,19.70
2023-04-29T16:23:33.064Z,19.60
2023-04-29T16:26:01.257Z,19.60
2023-04-29T16:28:29.225Z,19.40
2023-04-29T16:30:57.318Z,19.40
2023-04-29T16:33:25.290Z,19.30
2023-04-29T16:35:54.477Z,19.20
2023-04-29T16:38:22.546Z,19.10
2023-04-29T16:40:51.006Z,19.00
2023-04-29T16:43:19.630Z,18.90
2023-04-29T16:45:47.802Z,18.80
2023-04-29T16:48:15.869Z,18.80
2023-04-29T16:50:43.906Z,18.60
2023-04-29T16:53:11.939Z,18.60
2023-04-29T16:55:39.940Z,18.40
2023-04-29T16:58:08.174Z,18.40
2023-04-29T17:00:36.163Z,18.40
2023-04-29T17:03:04.901Z,18.30
2023-04-29T17:05:33.465Z,18.30
2023-04-29T17:08:01.386Z,18.10
2023-04-29T17:10:29.666Z,18.00
2023-04-29T17:12:57.806Z,18.00
2023-04-29T17:15:25.860Z,17.90
2023-04-29T17:17:55.535Z,17.90
2023-04-29T17:20:23.541Z,17.70
2023-04-29T17:22:52.021Z,17.70
2023-04-29T17:25:22.857Z,17.60
2023-04-29T17:27:51.029Z,17.60
2023-04-29T17:30:19.492Z,17.60
2023-04-29T17:32:50.003Z,17.50
2023-04-29T17:35:18.487Z,17.50
2023-04-29T17:37:46.942Z,17.40
2023-04-29T17:40:14.921Z,17.40
2023-04-29T17:42:43.054Z,17.40
2023-04-29T17:45:11.328Z,17.30
2023-04-29T17:47:39.427Z,17.30
2023-04-29T17:50:07.788Z,17.20
2023-04-29T17:52:36.396Z,17.10
2023-04-29T17:55:04.477Z,17.10
2023-04-29T17:57:32.514Z,17.10
2023-04-29T18:00:00.548Z,17.10
2023-04-29T18:02:28.575Z,17.10
2023-04-29T18:04:56.722Z,17.10
2023-04-29T18:07:24.946Z,17.10
2023-04-29T18:09:53.255Z,17.00
2023-04-29T18:12:21.593Z,17.00
2023-04-29T18:14:52.137Z,17.00
2023-04-29T18:17:20.329Z,17.00
2023-04-29T18:19:49.778Z,16.90
2023-04-29T18:22:17.993Z,16.90
2023-04-29T18:24:47.076Z,16.80
2023-04-29T18:27:15.144Z,16.80
2023-04-29T18:29:43.168Z,16.80
2023-04-29T18:32:11.312Z,16.80
2023-04-29T18:34:39.433Z,16.70
2023-04-29T18:37:07.719Z,16.70
2023-04-29T18:39:35.790Z,16.70
2023-04-29T18:42:06.843Z,16.60
2023-04-29T18:44:34.843Z,16.60
2023-04-29T18:47:03.088Z,16.50
2023-04-29T18:49:31.038Z,16.50
2023-04-29T18:52:01.776Z,16.40
2023-04-29T18:54:29.885Z,16.40
2023-04-29T18:56:59.113Z,16.40
2023-04-29T18:59:27.373Z,16.40
2023-04-29T19:01:55.683Z,16.30
2023-04-29T19:04:23.914Z,16.30
2023-04-29T19:06:52.114Z,16.20
2023-04-29T19:09:20.285Z,16.20
2023-04-29T19:11:48.435Z,16.10
2023-04-29T19:14:16.605Z,16.10
2023-04-29T19:16:44.619Z,16.10
2023-04-29T19:19:12.730Z,16.10
2023-04-29T19:21:40.721Z,16.00
2023-04-29T19:24:08.807Z,16.00
2023-04-29T19:26:38.789Z,16.00
2023-04-29T19:29:08.402Z,15.90
2023-04-29T19:31:36.649Z,15.80
2023-04-29T19:34:04.661Z,15.80
2023-04-29T19:36:33.660Z,15.80
2023-04-29T19:39:04.196Z,15.70
2023-04-29T19:41:34.738Z,15.70
2023-04-29T19:44:03.010Z,15.70
2023-04-29T19:46:31.172Z,15.60
2023-04-29T19:48:59.298Z,15.60
2023-04-29T19:51:27.277Z,15.60
2023-04-29T19:53:57.031Z,15.60
2023-04-29T19:56:25.042Z,15.50
2023-04-29T19:58:52.998Z,15.50
2023-04-29T20:01:21.129Z,15.50
2023-04-29T20:03:50.037Z,15.50
2023-04-29T20:06:18.240Z,15.50
2023-04-29T20:08:46.420Z,15.50
2023-04-29T20:11:14.379Z,15.40
2023-04-29T20:13:42.521Z,15.40
2023-04-29T20:16:11.644Z,15.40
2023-04-29T20:18:41.185Z,15.40
2023-04-29T20:21:09.200Z,15.40
2023-04-29T20:23:37.284Z,15.30
2023-04-29T20:26:05.449Z,15.30
2023-04-29T20:28:33.448Z,15.30
2023-04-29T20:31:01.713Z,15.30
2023-04-29T20:33:29.775Z,15.30
2023-04-29T20:35:59.867Z,15.20
2023-04-29T20:38:28.070Z,15.10
2023-04-29T20:40:56.074Z,15.10
2023-04-29T20:43:24.262Z,15.10
2023-04-29T20:45:52.786Z,15.10
2023-04-29T20:48:20.856Z,15.00
2023-04-29T20:50:49.740Z,15.00
2023-04-29T20:53:17.715Z,14.90
2023-04-29T20:55:46.035Z,14.90
2023-04-29T20:58:14.129Z,14.90
2023-04-29T21:00:42.296Z,14.80
2023-04-29T21:03:10.859Z,14.80
2023-04-29T21:05:38.877Z,14.80
2023-04-29T21:08:07.180Z,14.80
2023-04-29T21:10:35.173Z,14.80
2023-04-29T21:13:03.336Z,14.80
2023-04-29T21:15:31.414Z,14.80
2023-04-29T21:17:59.613Z,14.70
2023-04-29T21:20:27.698Z,14.70
2023-04-29T21:22:55.793Z,14.70
2023-04-29T21:25:23.787Z,14.70
2023-04-29T21:27:51.999Z,14.70
2023-04-29T21:30:20.104Z,14.70
2023-04-29T21:32:48.078Z,14.70
2023-04-29T21:35:16.263Z,14.60
2023-04-29T21:37:44.232Z,14.60
2023-04-29T21:40:12.619Z,14.60
2023-04-29T21:42:41.846Z,14.60
2023-04-29T21:45:10.402Z,14.60
2023-04-29T21:47:38.545Z,14.60
2023-04-29T21:50:08.027Z,14.60
2023-04-29T21:52:36.493Z,14.50
2023-04-29T21:55:05.125Z,14.50
2023-04-29T21:57:43.372Z,14.50
2023-04-29T22:00:31.218Z,14.40
2023-04-29T22:03:09.130Z,14.40
2023-04-29T22:05:37.525Z,14.40
2023-04-29T22:08:07.675Z,14.40
2023-04-29T22:10:35.686Z,14.40
2023-04-29T22:13:03.735Z,14.30
2023-04-29T22:15:31.645Z,14.30
2023-04-29T22:17:59.646Z,14.30
2023-04-29T22:20:28.115Z,14.30
2023-04-29T22:22:56.444Z,14.30
2023-04-29T22:25:24.416Z,14.30
2023-04-29T22:27:52.517Z,14.20
2023-04-29T22:30:21.100Z,14.20
2023-04-29T22:32:49.124Z,14.20
2023-04-29T22:35:17.253Z,14.20
2023-04-29T22:37:45.277Z,14.20
2023-04-29T22:40:13.566Z,14.10
2023-04-29T22:42:43.251Z,14.10
2023-04-29T22:45:12.007Z,14.10
2023-04-29T22:47:40.216Z,14.10
2023-04-29T22:50:08.526Z,14.00
2023-04-29T22:52:36.600Z,14.00
2023-04-29T22:55:04.745Z,14.00
2023-04-29T22:57:33.061Z,14.00
2023-04-29T23:00:01.034Z,14.00
2023-04-29T23:02:29.927Z,13.90
2023-04-29T23:04:58.644Z,13.90
2023-04-29T23:07:26.978Z,13.90
2023-04-29T23:09:55.145Z,13.90
2023-04-29T23:12:24.782Z,13.90
2023-04-29T23:14:53.035Z,13.80
2023-04-29T23:17:20.978Z,13.80
2023-04-29T23:19:48.925Z,13.80
2023-04-29T23:22:18.186Z,13.80
2023-04-29T23:24:46.268Z,13.80
2023-04-29T23:27:14.239Z,13.80
2023-04-29T23:29:42.490Z,13.80
2023-04-29T23:32:10.447Z,13.80
2023-04-29T23:34:38.703Z,13.80
2023-04-29T23:37:06.580Z,13.70
2023-04-29T23:39:34.727Z,13.70
2023-04-29T23:42:03.353Z,13.70
2023-04-29T23:44:31.437Z,13.70
2023-04-29T23:46:59.363Z,13.60
2023-04-29T23:49:27.746Z,13.70
2023-04-29T23:51:56.439Z,13.60
2023-04-29T23:54:24.645Z,13.60
2023-04-29T23:56:52.679Z,13.60
2023-04-29T23:59:20.845Z,13.60
